Time;durP1;ratioP1;P1;durP2;ratioP2;P2;SDS_P1;SDS_P2;PMS_P1;PMS_P2;Temp;Humidity;BMP_temperature;BMP_pressure;BME280_temperature;BME280_humidity;BME280_pressure;Samples;Min_cycle;Max_cycle;Signal;HPM_P1;HPM_P2
2023/01/07 00:01:46;;;;;;;9.13;6.08;;;;;;;6.44;80.64;100711.06;2146358;83;33125;-56
2023/01/07 00:04:49;;;;;;;9.55;5.35;;;;;;;6.38;80.49;100721.41;2145821;83;30220;-58
2023/01/07 00:07:51;;;;;;;11.55;5.67;;;;;;;6.31;80.46;100714.48;2146366;83;27682;-57
2023/01/07 00:10:53;;;;;;;15.10;8.63;;;;;;;6.27;80.38;100706.19;2145935;83;29177;-57
2023/01/07 00:13:57;;;;;;;14.35;8.43;;;;;;;6.22;80.45;100708.50;2146134;83;31807;-57
2023/01/07 00:16:59;;;;;;;28.40;13.50;;;;;;;6.18;80.50;100716.13;2146481;83;33010;-57
2023/01/07 00:20:01;;;;;;;28.30;13.48;;;;;;;6.14;80.50;100716.25;2146198;82;30113;-58
2023/01/07 00:23:03;;;;;;;26.85;13.88;;;;;;;6.11;80.47;100720.30;2146507;83;27520;-58
2023/01/07 00:26:08;;;;;;;26.25;14.60;;;;;;;6.05;80.53;100713.36;2146110;83;29033;-57
2023/01/07 00:29:10;;;;;;;26.12;16.30;;;;;;;6.03;80.50;100717.84;2146147;83;31830;-58
2023/01/07 00:32:12;;;;;;;26.70;16.00;;;;;;;5.98;80.46;100717.92;2145731;83;33838;-58
2023/01/07 00:35:25;;;;;;;34.15;20.65;;;;;;;5.96;80.59;100717.55;2146130;83;30466;-57
2023/01/07 00:38:28;;;;;;;28.55;17.60;;;;;;;5.90;80.58;100711.89;2144824;83;28221;-58
2023/01/07 00:41:31;;;;;;;28.00;17.42;;;;;;;5.87;80.59;100720.83;2146360;83;28665;-58
2023/01/07 00:44:33;;;;;;;27.20;17.57;;;;;;;5.85;80.57;100721.78;2146109;83;31941;-58
2023/01/07 00:47:35;;;;;;;24.52;16.67;;;;;;;5.80;80.38;100721.00;2146188;83;33028;-57
2023/01/07 00:50:38;;;;;;;24.07;16.67;;;;;;;5.72;80.22;100719.38;2145700;83;29480;-57
2023/01/07 00:53:40;;;;;;;24.72;14.05;;;;;;;5.65;80.07;100724.44;2144136;83;27590;-58
2023/01/07 00:56:42;;;;;;;23.98;15.23;;;;;;;5.58;80.07;100722.81;2141517;83;29053;-57
2023/01/07 00:59:44;;;;;;;25.52;14.23;;;;;;;5.50;80.20;100729.63;2141569;83;32117;-57
2023/01/07 01:02:47;;;;;;;20.27;12.37;;;;;;;5.44;80.12;100731.10;2141916;83;34111;-58
2023/01/07 01:05:49;;;;;;;18.70;12.05;;;;;;;5.37;79.99;100734.78;2141939;83;29341;-57
2023/01/07 01:08:51;;;;;;;19.17;11.68;;;;;;;5.28;79.89;100742.48;2141989;83;27605;-57
2023/01/07 01:11:53;;;;;;;15.32;10.05;;;;;;;5.21;79.88;100744.87;2141910;83;28881;-60
2023/01/07 01:14:55;;;;;;;15.23;9.33;;;;;;;5.13;79.91;100747.21;2141775;83;31425;-57
2023/01/07 01:17:57;;;;;;;17.05;9.08;;;;;;;5.10;80.05;100747.73;2141657;83;33645;-57
2023/01/07 01:21:08;;;;;;;12.40;8.33;;;;;;;5.06;80.17;100738.07;2143274;83;30643;-60
2023/01/07 01:24:10;;;;;;;12.03;8.45;;;;;;;5.05;80.32;100741.63;2144719;82;27602;-58
2023/01/07 01:27:12;;;;;;;11.97;8.23;;;;;;;5.05;80.53;100742.95;2144872;82;29020;-62
2023/01/07 01:30:14;;;;;;;14.30;8.25;;;;;;;5.04;80.55;100742.53;2144144;82;32482;-58
2023/01/07 01:33:16;;;;;;;11.78;8.20;;;;;;;5.04;80.67;100735.45;2144142;82;34173;-56
2023/01/07 01:36:17;;;;;;;13.00;8.38;;;;;;;5.02;80.66;100726.64;2144472;83;29663;-57
2023/01/07 01:39:20;;;;;;;11.38;7.60;;;;;;;5.00;80.64;100721.81;2144699;83;27653;-57
2023/01/07 01:42:24;;;;;;;13.05;7.70;;;;;;;4.98;80.59;100724.94;2144517;83;29863;-57
2023/01/07 01:45:26;;;;;;;12.73;8.53;;;;;;;4.96;80.54;100721.44;2144467;82;31904;-58
2023/01/07 01:48:29;;;;;;;12.03;7.53;;;;;;;4.90;80.40;100718.45;2144092;83;34195;-58
2023/01/07 01:51:34;;;;;;;9.53;7.05;;;;;;;4.85;80.37;100723.86;2128418;82;30128;-59
2023/01/07 01:54:38;;;;;;;10.68;6.85;;;;;;;4.79;80.33;100719.98;2144447;82;27693;-58
2023/01/07 01:57:41;;;;;;;13.45;7.60;;;;;;;4.74;80.30;100727.15;2144521;83;28700;-58
2023/01/07 02:00:42;;;;;;;12.13;7.90;;;;;;;4.69;80.27;100722.40;2144434;83;31565;-58
2023/01/07 02:03:46;;;;;;;10.15;7.08;;;;;;;4.63;80.28;100719.41;2133120;83;33334;-58
2023/01/07 02:07:04;;;;;;;10.40;7.55;;;;;;;4.58;80.28;100719.94;2107709;84;30521;-57
2023/01/07 02:10:14;;;;;;;;;;;;;;;4.54;80.30;100721.78;2110469;84;27715;-58
2023/01/07 02:13:52;;;;;;;11.53;8.33;;;;;;;4.48;80.32;100717.00;2123098;83;29797;-58
2023/01/07 02:16:59;;;;;;;15.38;9.83;;;;;;;4.45;80.73;100720.59;2107872;84;32036;-59
2023/01/07 02:20:34;;;;;;;15.70;9.85;;;;;;;4.43;80.65;100717.09;2107613;84;34319;-58
2023/01/07 02:24:16;;;;;;;14.18;9.13;;;;;;;4.37;80.68;100703.49;2138395;83;29713;-59
2023/01/07 02:27:40;;;;;;;14.23;10.10;;;;;;;4.38;80.75;100703.05;2109535;84;27769;-57
2023/01/07 02:30:56;;;;;;;13.85;9.10;;;;;;;4.34;80.76;100702.22;2146150;83;28079;-58
2023/01/07 02:34:18;;;;;;;13.65;9.25;;;;;;;4.32;80.71;100702.69;2143705;83;32203;-57
2023/01/07 02:37:48;;;;;;;14.65;9.55;;;;;;;4.27;80.63;100697.94;2146301;83;33323;-57
2023/01/07 02:41:11;;;;;;;14.95;10.25;;;;;;;4.23;80.67;100701.53;2070651;86;29531;-57
2023/01/07 02:44:27;;;;;;;28.42;10.32;;;;;;;4.18;80.66;100704.70;2070533;86;27744;-58
2023/01/07 02:47:42;;;;;;;13.35;9.85;;;;;;;4.14;80.59;100702.56;2070329;85;28646;-58
2023/01/07 02:50:44;;;;;;;18.15;11.20;;;;;;;4.09;80.54;100708.37;2043837;86;31860;-58
2023/01/07 02:53:48;;;;;;;17.00;11.55;;;;;;;4.05;80.70;100712.86;2086742;85;34188;-57
2023/01/07 02:57:36;;;;;;;16.82;11.65;;;;;;;4.02;80.77;100712.91;2087226;84;29568;-57
2023/01/07 03:01:00;;;;;;;34.25;25.40;;;;;;;4.00;80.83;100717.35;2046504;86;27646;-57
2023/01/07 03:04:11;;;;;;;18.67;14.53;;;;;;;3.96;80.92;100717.00;2010630;88;30164;-57
2023/01/07 03:07:33;;;;;;;23.22;15.58;;;;;;;3.94;80.90;100707.73;1979080;89;31210;-57
2023/01/07 03:10:48;;;;;;;19.15;14.43;;;;;;;3.91;80.83;100705.12;1978241;89;33827;-57
2023/01/07 03:13:58;;;;;;;21.80;15.90;;;;;;;3.86;80.82;100703.44;1974947;89;29735;-57
2023/01/07 03:17:03;;;;;;;23.22;17.70;;;;;;;3.83;80.86;100708.78;1986230;88;27769;-57
2023/01/07 03:20:06;;;;;;;25.82;18.55;;;;;;;3.78;80.93;100707.53;1997246;89;29246;-57
2023/01/07 03:23:11;;;;;;;23.25;18.10;;;;;;;3.75;81.06;100707.14;2011293;88;31971;-57
2023/01/07 03:26:14;;;;;;;25.43;18.97;;;;;;;3.74;81.16;100704.06;2011371;88;33548;-57
2023/01/07 03:29:17;;;;;;;24.67;18.55;;;;;;;3.75;81.24;100709.80;2010648;88;29338;-57
2023/01/07 03:33:02;;;;;;;23.75;18.05;;;;;;;3.75;81.27;100700.95;1979154;89;28367;-57
2023/01/07 03:36:06;;;;;;;25.95;17.15;;;;;;;3.74;81.31;100707.15;2026842;87;30108;-58
2023/01/07 03:39:10;;;;;;;23.90;16.97;;;;;;;3.73;81.29;100704.96;1983100;88;31882;-58
2023/01/07 03:42:39;;;;;;;25.00;17.25;;;;;;;3.72;81.29;100715.59;2004308;88;33956;-58
2023/01/07 03:45:56;;;;;;;22.48;15.32;;;;;;;3.70;81.20;100705.47;2054500;86;29400;-58
2023/01/07 03:48:58;;;;;;;18.65;14.70;;;;;;;3.64;81.11;100699.34;1953028;90;27798;-58
2023/01/07 03:51:59;;;;;;;20.43;15.72;;;;;;;3.60;81.04;100700.75;1952140;91;29491;-59
2023/01/07 03:55:03;;;;;;;26.77;18.30;;;;;;;3.56;80.94;100700.36;1952104;91;32257;-59
2023/01/07 03:58:08;;;;;;;19.92;15.18;;;;;;;3.49;81.11;100700.42;1952779;91;34177;-58
2023/01/07 04:01:10;;;;;;;26.07;17.40;;;;;;;3.45;81.01;100700.06;1953026;91;29544;-59
2023/01/07 04:04:12;;;;;;;23.57;17.60;;;;;;;3.40;80.96;100701.00;1952635;91;27829;-62
2023/01/07 04:07:14;;;;;;;25.27;17.85;;;;;;;3.34;80.98;100696.23;1952448;91;29934;-63
2023/01/07 04:10:17;;;;;;;24.05;18.90;;;;;;;3.32;81.06;100698.02;1962270;88;30492;-63
2023/01/07 04:13:19;;;;;;;26.05;18.57;;;;;;;3.29;81.05;100706.00;2017166;88;33869;-63
2023/01/07 04:16:21;;;;;;;23.73;17.32;;;;;;;3.26;81.11;100700.74;2017522;88;29828;-63
2023/01/07 04:19:23;;;;;;;25.70;18.73;;;;;;;3.26;81.24;100706.03;2017533;88;27747;-60
2023/01/07 04:22:25;;;;;;;23.87;17.98;;;;;;;3.25;81.25;100703.42;2018036;88;28596;-60
2023/01/07 04:25:31;;;;;;;25.70;18.10;;;;;;;3.23;81.21;100706.53;2017968;88;31220;-60
2023/01/07 04:28:33;;;;;;;30.67;19.83;;;;;;;3.19;81.09;100700.41;2018236;88;32967;-61
2023/01/07 04:31:35;;;;;;;26.77;18.87;;;;;;;3.14;80.97;100700.91;2017707;88;30287;-58
2023/01/07 04:34:37;;;;;;;23.15;17.70;;;;;;;3.08;80.96;100695.24;2017782;88;27886;-58
2023/01/07 04:37:39;;;;;;;26.95;18.40;;;;;;;3.02;80.86;100690.91;2017760;88;30111;-58
2023/01/07 04:40:41;;;;;;;24.25;17.20;;;;;;;2.95;80.80;100687.03;2017719;88;32281;-59
2023/01/07 04:43:42;;;;;;;26.70;18.42;;;;;;;2.89;80.79;100697.25;2019522;86;34098;-58
2023/01/07 04:46:45;;;;;;;27.75;18.32;;;;;;;2.82;80.67;100695.55;2051962;86;29706;-58
2023/01/07 04:49:47;;;;;;;29.95;20.77;;;;;;;2.77;80.70;100698.68;2052099;85;27671;-58
2023/01/07 04:52:49;;;;;;;27.55;19.20;;;;;;;2.69;80.66;100693.47;2051296;86;28724;-58
2023/01/07 04:55:53;;;;;;;27.95;19.52;;;;;;;2.64;80.76;100706.76;2063171;84;31189;-60
2023/01/07 04:58:55;;;;;;;28.20;19.07;;;;;;;2.59;80.61;100704.59;2108927;84;33969;-57
2023/01/07 05:01:57;;;;;;;31.25;20.55;;;;;;;2.52;80.57;100709.07;2109012;84;30533;-58
2023/01/07 05:04:59;;;;;;;29.72;21.40;;;;;;;2.49;80.72;100706.45;2109192;84;27608;-57
2023/01/07 05:08:01;;;;;;;29.98;22.15;;;;;;;2.46;80.82;100707.83;2108995;84;28716;-58
2023/01/07 05:11:04;;;;;;;30.95;23.70;;;;;;;2.44;80.92;100704.31;2109061;84;31169;-58
2023/01/07 05:14:05;;;;;;;31.95;22.42;;;;;;;2.43;81.07;100702.56;2109362;84;33776;-57
2023/01/07 05:17:07;;;;;;;37.95;24.45;;;;;;;2.44;81.23;100705.64;2109422;84;30453;-58
2023/01/07 05:20:10;;;;;;;45.52;34.80;;;;;;;2.47;81.31;100702.08;2121253;83;27715;-58
2023/01/07 05:23:12;;;;;;;47.83;34.58;;;;;;;2.48;81.61;100694.15;2111405;84;29476;-58
2023/01/07 05:26:15;;;;;;;44.10;32.28;;;;;;;2.52;81.63;100696.31;2126454;83;31448;-58
2023/01/07 05:29:17;;;;;;;40.38;30.95;;;;;;;2.53;81.63;100698.92;2126652;83;32955;-59
2023/01/07 05:32:19;;;;;;;42.90;32.95;;;;;;;2.57;81.65;100701.98;2126580;83;30459;-57
2023/01/07 05:35:20;;;;;;;45.85;32.40;;;;;;;2.59;81.77;100696.66;2126667;83;28270;-58
2023/01/07 05:38:23;;;;;;;41.37;32.10;;;;;;;2.65;81.91;100699.72;2126231;83;29578;-58
2023/01/07 05:41:25;;;;;;;44.75;31.20;;;;;;;2.68;81.94;100694.36;2126226;83;31876;-58
2023/01/07 05:44:27;;;;;;;42.65;30.30;;;;;;;2.71;81.96;100696.55;2126638;83;33751;-58
2023/01/07 05:47:28;;;;;;;34.60;25.77;;;;;;;2.77;82.12;100702.65;2126339;83;29321;-58
2023/01/07 05:50:31;;;;;;;42.20;27.85;;;;;;;2.81;82.21;100701.73;2110796;83;27691;-58
2023/01/07 05:53:33;;;;;;;39.25;28.05;;;;;;;2.87;82.33;100696.38;2144861;82;29941;-58
2023/01/07 05:56:35;;;;;;;39.50;28.85;;;;;;;2.94;82.53;100697.19;2144707;82;32181;-58
2023/01/07 05:59:36;;;;;;;39.67;29.23;;;;;;;2.99;82.53;100694.91;2144509;83;33383;-58
2023/01/07 06:02:39;;;;;;;39.15;28.32;;;;;;;3.07;82.65;100705.41;2144579;83;29808;-57
2023/01/07 06:05:41;;;;;;;38.98;29.27;;;;;;;3.13;82.72;100700.05;2144207;82;27692;-58
2023/01/07 06:08:43;;;;;;;40.95;27.87;;;;;;;3.21;82.89;100706.56;2144117;82;29879;-58
2023/01/07 06:11:45;;;;;;;35.40;27.40;;;;;;;3.28;82.93;100704.71;2144179;83;31066;-58
2023/01/07 06:14:47;;;;;;;36.85;27.10;;;;;;;3.36;83.02;100702.82;2144385;83;34466;-58
2023/01/07 06:17:50;;;;;;;34.33;25.60;;;;;;;3.42;82.94;100702.75;2144463;83;28503;-57
2023/01/07 06:20:52;;;;;;;39.03;26.77;;;;;;;3.48;83.04;100699.14;2116706;83;27730;-57
2023/01/07 06:23:55;;;;;;;39.48;27.52;;;;;;;3.55;83.11;100701.25;2092459;85;29889;-58
2023/01/07 06:26:57;;;;;;;38.83;27.82;;;;;;;3.60;83.13;100703.39;2092476;85;31080;-57
2023/01/07 06:29:59;;;;;;;33.53;25.30;;;;;;;3.66;83.17;100709.91;2092781;85;32958;-58
2023/01/07 06:33:01;;;;;;;35.92;25.97;;;;;;;3.74;83.21;100707.15;2092706;85;30498;-57
2023/01/07 06:36:04;;;;;;;35.05;26.12;;;;;;;3.78;83.20;100705.78;2092942;85;27721;-58
2023/01/07 06:39:06;;;;;;;33.88;25.70;;;;;;;3.83;83.12;100706.13;2092486;85;29498;-58
2023/01/07 06:42:08;;;;;;;39.78;27.77;;;;;;;3.85;83.04;100711.86;2092468;85;32247;-56
2023/01/07 06:45:11;;;;;;;37.40;28.32;;;;;;;3.89;83.09;100717.98;2092733;85;32771;-57
2023/01/07 06:48:12;;;;;;;35.95;27.82;;;;;;;3.94;83.17;100716.14;2094637;84;29686;-56
2023/01/07 06:51:14;;;;;;;38.33;28.25;;;;;;;3.98;83.22;100720.47;2110030;84;27670;-56
2023/01/07 06:54:16;;;;;;;48.98;35.98;;;;;;;4.04;83.27;100724.83;2109497;84;28713;-56
2023/01/07 06:57:18;;;;;;;48.80;37.00;;;;;;;4.08;83.31;100719.45;2109348;84;32254;-57
2023/01/07 07:00:21;;;;;;;48.83;36.70;;;;;;;4.15;83.41;100719.33;2109433;84;34269;-56
2023/01/07 07:03:23;;;;;;;43.30;32.28;;;;;;;4.20;83.50;100715.73;2109878;84;29530;-56
2023/01/07 07:06:25;;;;;;;40.10;28.87;;;;;;;4.26;83.53;100714.75;2110381;84;27580;-56
2023/01/07 07:09:27;;;;;;;39.75;29.35;;;;;;;4.33;83.57;100716.84;2109596;84;29364;-56
2023/01/07 07:12:31;;;;;;;47.27;31.48;;;;;;;4.39;83.60;100719.37;2109963;84;31348;-56
2023/01/07 07:15:33;;;;;;;43.17;31.48;;;;;;;4.45;83.65;100715.76;2109835;84;33073;-56
2023/01/07 07:18:35;;;;;;;38.13;29.85;;;;;;;4.51;83.70;100716.52;2110046;84;30435;-56
2023/01/07 07:21:37;;;;;;;41.25;30.05;;;;;;;4.58;83.78;100711.98;2112201;84;27614;-56
2023/01/07 07:24:38;;;;;;;43.35;29.32;;;;;;;4.65;83.79;100712.27;2111954;84;29542;-57
2023/01/07 07:27:42;;;;;;;42.20;30.15;;;;;;;4.70;83.76;100715.72;2112386;84;31114;-57
2023/01/07 07:30:44;;;;;;;39.45;28.55;;;;;;;4.77;83.77;100706.33;2111656;84;33182;-57
2023/01/07 07:33:47;;;;;;;40.28;29.05;;;;;;;4.83;83.78;100713.72;2111899;84;31420;-57
2023/01/07 07:36:50;;;;;;;40.78;29.30;;;;;;;4.89;83.79;100709.17;2110934;84;27664;-57
2023/01/07 07:39:51;;;;;;;37.95;27.98;;;;;;;4.94;83.84;100700.24;2110503;84;29471;-57
2023/01/07 07:42:54;;;;;;;37.70;27.93;;;;;;;5.01;83.91;100696.54;2112297;84;31448;-56
2023/01/07 07:45:57;;;;;;;38.38;26.30;;;;;;;5.09;83.99;100699.04;2112316;84;32960;-56
2023/01/07 07:49:00;;;;;;;41.40;27.82;;;;;;;5.17;84.00;100696.22;2112828;84;30665;-56
2023/01/07 07:52:02;;;;;;;42.48;29.40;;;;;;;5.25;84.01;100699.61;2113200;84;27793;-58
2023/01/07 07:55:06;;;;;;;39.88;28.20;;;;;;;5.32;84.01;100700.35;2112127;84;29596;-56
2023/01/07 07:58:08;;;;;;;38.50;27.07;;;;;;;5.41;84.07;100706.78;2098635;84;31006;-56
2023/01/07 08:01:10;;;;;;;34.70;26.25;;;;;;;5.48;84.06;100698.22;2089953;85;33419;-57
2023/01/07 08:04:12;;;;;;;33.88;24.05;;;;;;;5.56;84.10;100700.27;2089828;85;29360;-57
2023/01/07 08:07:13;;;;;;;31.42;22.85;;;;;;;5.66;84.21;100697.39;2090058;85;27205;-56
2023/01/07 08:10:16;;;;;;;33.65;24.55;;;;;;;5.75;84.15;100693.20;2089777;85;30767;-58
2023/01/07 08:13:18;;;;;;;39.40;27.60;;;;;;;5.83;84.20;100694.35;2090060;85;32185;-56
2023/01/07 08:16:20;;;;;;;39.83;28.00;;;;;;;5.92;84.21;100689.69;2089769;85;33864;-57
2023/01/07 08:19:21;;;;;;;46.48;30.40;;;;;;;6.03;84.21;100700.55;2090227;85;30481;-57
2023/01/07 08:22:23;;;;;;;48.78;31.87;;;;;;;6.12;84.24;100694.13;2089989;85;27701;-57
2023/01/07 08:25:26;;;;;;;47.62;30.60;;;;;;;6.16;83.99;100695.81;2090211;85;29062;-57
2023/01/07 08:28:30;;;;;;;44.70;28.30;;;;;;;6.22;83.91;100695.20;2090079;85;31013;-57
2023/01/07 08:31:32;;;;;;;37.05;26.55;;;;;;;6.30;83.93;100695.00;2090049;85;32979;-56
2023/01/07 08:34:34;;;;;;;36.58;25.20;;;;;;;6.38;83.93;100690.81;2089627;85;29876;-57
2023/01/07 08:37:36;;;;;;;39.25;27.10;;;;;;;6.48;83.99;100680.33;2089821;85;27657;-57
2023/01/07 08:40:38;;;;;;;38.73;26.33;;;;;;;6.63;84.10;100691.47;2089814;85;29918;-57
2023/01/07 08:43:43;;;;;;;32.33;24.15;;;;;;;6.77;84.18;100690.67;2089698;85;33108;-57
2023/01/07 08:46:44;;;;;;;34.60;24.18;;;;;;;6.92;84.07;100689.82;2099670;84;33351;-57
2023/01/07 08:49:46;;;;;;;38.90;26.15;;;;;;;7.04;83.77;100696.56;2099957;84;30418;-57
2023/01/07 08:52:48;;;;;;;43.42;31.10;;;;;;;7.10;83.65;100698.63;2099936;84;27727;-57
2023/01/07 08:55:52;;;;;;;48.78;31.30;;;;;;;7.13;83.40;100695.84;2100036;84;29103;-58
2023/01/07 08:58:54;;;;;;;47.55;31.77;;;;;;;7.19;83.46;100697.48;2120274;83;31063;-58
2023/01/07 09:01:56;;;;;;;48.48;30.90;;;;;;;7.25;83.31;100703.09;2127577;83;33384;-58
2023/01/07 09:04:58;;;;;;;40.48;27.85;;;;;;;7.28;82.94;100703.00;2127606;83;30537;-56
2023/01/07 09:08:01;;;;;;;45.20;29.37;;;;;;;7.28;82.66;100704.34;2126991;83;27692;-56
2023/01/07 09:11:05;;;;;;;45.52;29.80;;;;;;;7.25;82.68;100710.61;2127312;83;28714;-57
2023/01/07 09:14:07;;;;;;;43.78;29.05;;;;;;;7.29;82.62;100704.28;2127155;83;31022;-56
2023/01/07 09:17:09;;;;;;;43.05;26.77;;;;;;;7.33;82.64;100704.19;2126819;83;34292;-57
2023/01/07 09:20:11;;;;;;;41.63;27.75;;;;;;;7.38;82.85;100707.58;2126847;83;29753;-56
2023/01/07 09:23:14;;;;;;;39.38;28.55;;;;;;;7.45;82.91;100711.34;2127312;83;27806;-56
2023/01/07 09:26:16;;;;;;;38.63;26.50;;;;;;;7.51;82.78;100714.75;2126572;83;29568;-66
2023/01/07 09:29:18;;;;;;;33.88;25.12;;;;;;;7.57;82.78;100718.10;2119835;82;32240;-65
2023/01/07 09:32:21;;;;;;;38.15;25.52;;;;;;;7.65;82.76;100715.67;2122170;83;34186;-64
2023/01/07 09:35:23;;;;;;;27.25;18.17;;;;;;;7.75;82.96;100714.02;2130796;82;30909;-65
2023/01/07 09:38:25;;;;;;;23.50;17.70;;;;;;;7.86;82.64;100710.98;2118150;82;27606;-67
2023/01/07 09:41:52;;;;;;;22.80;16.23;;;;;;;7.98;82.74;100700.86;2132256;83;29466;-68
2023/01/07 09:45:05;;;;;;;24.75;16.75;;;;;;;8.10;82.29;100700.45;2095785;84;31034;-66
2023/01/07 09:48:27;;;;;;;27.85;16.37;;;;;;;8.27;82.41;100695.02;2073278;84;33081;-66
2023/01/07 09:51:36;;;;;;;23.10;16.65;;;;;;;8.42;82.28;100697.64;2083732;85;29782;-69
2023/01/07 09:54:39;;;;;;;23.02;17.30;;;;;;;8.58;82.33;100694.87;2074600;84;27671;-67
2023/01/07 09:57:41;;;;;;;20.40;15.00;;;;;;;8.74;81.98;100699.20;2089115;84;28670;-68
2023/01/07 10:01:18;;;;;;;21.23;14.50;;;;;;;8.79;81.68;100690.56;2104457;83;31278;-67
2023/01/07 10:04:57;;;;;;;29.80;20.70;;;;;;;8.84;81.04;100690.39;2115781;84;33081;-64
2023/01/07 10:08:34;;;;;;;28.70;20.50;;;;;;;8.82;81.05;100685.56;2114877;83;30450;-67
2023/01/07 10:11:59;;;;;;;51.50;38.02;;;;;;;8.89;81.21;100679.53;2115857;83;27697;-68
2023/01/07 10:15:20;;;;;;;30.05;21.57;;;;;;;8.97;81.25;100672.13;2115883;84;29149;-67
2023/01/07 10:18:45;;;;;;;70.40;52.03;;;;;;;9.04;81.06;100664.27;2105226;84;31514;-66
2023/01/07 10:22:05;;;;;;;;;;;;;;;9.09;80.92;100662.30;2115679;84;34401;-65
2023/01/07 10:25:21;;;;;;;49.83;35.50;;;;;;;9.17;80.81;100663.83;2077110;84;30448;-65
2023/01/07 10:28:43;;;;;;;39.90;27.30;;;;;;;9.19;80.73;100660.61;2069034;84;27828;-67
2023/01/07 10:31:46;;;;;;;43.17;29.07;;;;;;;9.28;80.71;100666.95;2075484;84;30006;-63
2023/01/07 10:34:50;;;;;;;68.65;43.85;;;;;;;9.39;80.79;100665.20;2079733;85;31850;-65
2023/01/07 10:37:54;;;;;;;49.98;33.40;;;;;;;9.46;80.52;100656.48;2079542;84;32968;-67
2023/01/07 10:40:59;;;;;;;90.90;55.95;;;;;;;9.50;80.53;100657.63;2079853;84;30182;-65
2023/01/07 10:44:27;;;;;;;30.48;20.55;;;;;;;9.57;80.38;100652.90;2079625;84;27807;-66
2023/01/07 10:47:46;;;;;;;23.83;17.05;;;;;;;9.64;80.13;100645.50;2079881;85;29149;-64
2023/01/07 10:51:22;;;;;;;28.73;22.65;;;;;;;9.70;80.11;100648.80;2080171;84;31651;-65
2023/01/07 10:54:40;;;;;;;25.57;17.75;;;;;;;9.80;80.34;100641.27;2028315;87;33780;-70
2023/01/07 10:57:42;;;;;;;19.98;15.80;;;;;;;9.91;80.13;100639.97;2033955;87;29684;-66
2023/01/07 11:00:46;;;;;;;23.83;18.00;;;;;;;9.96;79.97;100636.17;2045783;85;27837;-66
2023/01/07 11:03:50;;;;;;;24.13;17.63;;;;;;;10.01;79.52;100622.58;2075086;85;29547;-67
2023/01/07 11:06:57;;;;;;;21.67;16.03;;;;;;;10.03;79.38;100618.90;2074490;85;31019;-67
2023/01/07 11:10:04;;;;;;;55.55;42.73;;;;;;;10.05;79.17;100616.17;2074345;85;35178;-66
2023/01/07 11:13:15;;;;;;;25.55;17.82;;;;;;;10.13;79.52;100606.48;2074323;85;29418;-64
2023/01/07 11:16:25;;;;;;;27.67;21.15;;;;;;;10.21;79.16;100602.98;2065494;85;27775;-67
2023/01/07 11:19:44;;;;;;;23.12;17.23;;;;;;;10.27;79.28;100604.07;2068690;85;29073;-67
2023/01/07 11:22:46;;;;;;;23.73;16.20;;;;;;;10.35;78.94;100591.68;2066915;85;31410;-65
2023/01/07 11:25:48;;;;;;;22.17;16.48;;;;;;;10.42;78.81;100589.18;2073500;85;33392;-64
2023/01/07 11:29:03;;;;;;;23.07;18.27;;;;;;;10.47;78.24;100571.07;2074463;85;30283;-65
2023/01/07 11:32:06;;;;;;;25.85;17.87;;;;;;;10.53;78.45;100573.08;2092240;84;28321;-67
2023/01/07 11:35:18;;;;;;;26.35;18.82;;;;;;;10.61;78.38;100562.87;2116705;83;28646;-65
2023/01/07 11:38:32;;;;;;;18.87;13.65;;;;;;;10.69;78.34;100570.11;2076454;84;32507;-68
2023/01/07 11:41:34;;;;;;;17.95;12.63;;;;;;;10.81;78.22;100570.02;2112549;83;32962;-66
2023/01/07 11:44:36;;;;;;;16.93;12.73;;;;;;;10.92;78.03;100569.53;2116676;84;29691;-66
2023/01/07 11:47:41;;;;;;;19.73;14.33;;;;;;;11.04;78.20;100564.92;2116746;83;27705;-67
2023/01/07 11:50:56;;;;;;;16.05;11.80;;;;;;;11.20;78.16;100556.14;2115714;84;28639;-68
2023/01/07 11:53:59;;;;;;;65.83;44.93;;;;;;;11.36;78.11;100551.77;2117032;83;32192;-67
2023/01/07 11:57:25;;;;;;;90.72;57.17;;;;;;;11.47;77.60;100552.59;2105489;83;33377;-66
2023/01/07 12:00:30;;;;;;;;;;;;;;;11.52;77.00;100555.03;2119648;83;29341;-66
2023/01/07 12:03:30;;;;;;;42.67;29.18;;;;;;;11.57;76.79;100550.32;2120423;83;27807;-67
2023/01/07 12:06:35;;;;;;;45.25;30.27;;;;;;;11.59;76.48;100551.57;2119035;83;28714;-68
2023/01/07 12:09:39;;;;;;;45.48;31.00;;;;;;;11.61;76.36;100542.98;2118981;83;31062;-67
2023/01/07 12:12:42;;;;;;;40.77;30.03;;;;;;;11.66;76.72;100537.77;2120900;83;32964;-65
2023/01/07 12:15:52;;;;;;;62.05;42.88;;;;;;;11.70;76.55;100542.05;2114484;83;30513;-65
2023/01/07 12:19:05;;;;;;;63.95;39.48;;;;;;;11.74;76.56;100533.84;2120256;83;27738;-65
2023/01/07 12:22:48;;;;;;;43.15;28.10;;;;;;;11.80;76.17;100536.20;2088942;83;28931;-69
2023/01/07 12:26:15;;;;;;;35.98;24.07;;;;;;;11.80;76.04;100528.14;2120048;83;31148;-66
2023/01/07 12:29:54;;;;;;;45.25;30.68;;;;;;;11.83;76.01;100527.99;2086367;83;33136;-65
2023/01/07 12:33:19;;;;;;;33.70;20.90;;;;;;;11.82;75.71;100524.45;2084084;85;30237;-66
2023/01/07 12:36:49;;;;;;;27.70;19.10;;;;;;;11.83;75.76;100515.42;2085259;85;28440;-65
2023/01/07 12:39:55;;;;;;;17.80;14.10;;;;;;;11.82;75.28;100513.72;2085005;85;28843;-66
2023/01/07 12:43:26;;;;;;;23.62;15.88;;;;;;;11.81;75.24;100509.75;2085406;85;31006;-66
2023/01/07 12:46:34;;;;;;;21.17;14.30;;;;;;;11.78;75.25;100506.77;2011584;87;33044;-67
2023/01/07 12:50:05;;;;;;;18.77;13.40;;;;;;;11.81;75.04;100499.89;2012044;88;29420;-66
2023/01/07 12:53:30;;;;;;;24.57;15.45;;;;;;;11.85;75.09;100506.81;2012494;88;28540;-67
2023/01/07 12:56:42;;;;;;;19.50;12.90;;;;;;;11.88;75.04;100503.12;2011748;88;29554;-67
2023/01/07 12:59:52;;;;;;;20.60;14.60;;;;;;;11.93;74.60;100494.34;2011708;88;32243;-66
2023/01/07 13:03:11;;;;;;;14.93;10.60;;;;;;;11.98;74.73;100492.33;2025235;87;34278;-67
2023/01/07 13:06:41;;;;;;;22.75;13.85;;;;;;;12.03;74.56;100487.20;1951408;90;28872;-65
2023/01/07 13:09:48;;;;;;;28.27;18.00;;;;;;;12.02;74.20;100486.31;1947913;91;27866;-66
2023/01/07 13:12:55;;;;;;;38.35;24.67;;;;;;;12.00;73.82;100480.15;1961237;90;29875;-65
2023/01/07 13:15:57;;;;;;;38.73;27.37;;;;;;;11.93;73.68;100476.03;1966361;90;32041;-66
2023/01/07 13:18:59;;;;;;;40.05;27.77;;;;;;;11.84;73.17;100472.02;1939508;91;32971;-65
2023/01/07 13:22:11;;;;;;;26.35;19.62;;;;;;;11.72;72.94;100465.46;1941408;90;30560;-66
2023/01/07 13:25:38;;;;;;;27.95;18.90;;;;;;;11.62;72.99;100460.19;1952671;90;27784;-65
2023/01/07 13:29:16;;;;;;;25.10;17.45;;;;;;;11.55;73.10;100459.64;1962097;90;29544;-65
2023/01/07 13:32:57;;;;;;;36.33;23.32;;;;;;;11.45;72.91;100459.23;1890091;94;31563;-66
2023/01/07 13:36:15;;;;;;;34.98;23.05;;;;;;;11.35;72.85;100452.12;1860408;95;33421;-66
2023/01/07 13:39:29;;;;;;;71.33;43.45;;;;;;;11.23;72.67;100454.09;1882318;94;29525;-66
2023/01/07 13:43:05;;;;;;;99.15;57.25;;;;;;;11.09;72.28;100448.91;1901924;91;36218;-66
2023/01/07 13:46:13;;;;;;;64.85;36.83;;;;;;;10.94;72.28;100449.22;2000558;88;28531;-66
2023/01/07 13:49:30;;;;;;;70.65;50.88;;;;;;;10.81;72.17;100456.58;2000338;88;31442;-66
2023/01/07 13:52:33;;;;;;;25.57;17.92;;;;;;;10.71;72.32;100449.45;2000462;88;33164;-64
2023/01/07 13:55:41;;;;;;;15.30;10.08;;;;;;;10.60;72.46;100452.17;2000384;88;30431;-65
2023/01/07 13:58:54;;;;;;;33.13;23.27;;;;;;;10.53;72.56;100460.09;2000506;88;27740;-65
2023/01/07 14:02:25;;;;;;;46.88;29.27;;;;;;;10.46;72.75;100458.17;2010681;87;28734;-64
2023/01/07 14:05:28;;;;;;;54.25;37.35;;;;;;;10.40;72.89;100456.25;2008448;88;32285;-66
2023/01/07 14:08:30;;;;;;;16.00;11.28;;;;;;;10.32;72.82;100460.14;2094608;82;34402;-66
2023/01/07 14:11:41;;;;;;;15.83;9.70;;;;;;;10.26;72.89;100452.38;2160087;82;30078;-67
2023/01/07 14:15:12;;;;;;;14.95;11.85;;;;;;;10.20;72.86;100462.02;2160274;82;27738;-66
2023/01/07 14:18:54;;;;;;;11.93;8.73;;;;;;;10.14;72.90;100464.99;2159739;82;28883;-65
2023/01/07 14:22:28;;;;;;;11.15;8.18;;;;;;;10.05;72.91;100466.28;2171718;81;32293;-66
2023/01/07 14:25:59;;;;;;;11.30;7.92;;;;;;;9.96;73.07;100466.22;2174894;81;34245;-67